createdAt,value
2023-03-28T00:01:33.663Z,-0.23
2023-03-28T00:04:03.167Z,-0.27
2023-03-28T00:06:34.003Z,-0.31
2023-03-28T00:09:03.464Z,-0.29
2023-03-28T00:11:33.503Z,-0.21
2023-03-28T00:14:03.513Z,-0.14
2023-03-28T00:16:39.381Z,-0.13
2023-03-28T00:19:16.785Z,-0.12
2023-03-28T00:21:51.366Z,-0.09
2023-03-28T00:24:22.354Z,-0.11
2023-03-28T00:26:54.913Z,-0.12
2023-03-28T00:29:26.161Z,-0.19
2023-03-28T00:31:55.564Z,-0.24
2023-03-28T00:34:25.668Z,-0.29
2023-03-28T00:36:56.931Z,-0.34
2023-03-28T00:39:27.726Z,-0.38
2023-03-28T00:41:57.982Z,-0.42
2023-03-28T00:44:56.198Z,-0.36
2023-03-28T00:47:40.939Z,-0.34
2023-03-28T00:50:20.128Z,-0.30
2023-03-28T00:52:56.658Z,-0.22
2023-03-28T00:55:32.444Z,-0.23
2023-03-28T00:58:02.139Z,-0.21
2023-03-28T01:00:32.908Z,-0.23
2023-03-28T01:03:06.728Z,-0.21
2023-03-28T01:05:37.459Z,-0.21
2023-03-28T01:08:14.986Z,-0.24
2023-03-28T01:10:46.366Z,-0.33
2023-03-28T01:13:21.048Z,-0.23
2023-03-28T01:15:52.072Z,-0.17
2023-03-28T01:18:26.739Z,-0.25
2023-03-28T01:21:54.870Z,-0.35
2023-03-28T01:25:19.843Z,-0.28
2023-03-28T01:27:54.468Z,-0.36
2023-03-28T01:31:08.672Z,-0.43
2023-03-28T01:34:54.745Z,-0.56
2023-03-28T01:37:40.999Z,-0.50
2023-03-28T01:40:31.440Z,-0.55
2023-03-28T01:43:26.024Z,-0.56
2023-03-28T01:46:03.380Z,-0.79
2023-03-28T01:48:52.058Z,-0.79
2023-03-28T01:51:38.128Z,-0.68
2023-03-28T01:54:18.005Z,-0.74
2023-03-28T01:56:54.670Z,-0.71
2023-03-28T01:59:39.272Z,-0.81
2023-03-28T02:02:43.089Z,-0.78
2023-03-28T02:05:31.769Z,-0.80
2023-03-28T02:08:05.180Z,-0.88
2023-03-28T02:10:51.407Z,-0.89
2023-03-28T02:13:45.975Z,-0.93
2023-03-28T02:16:50.012Z,-1.02
2023-03-28T02:19:50.547Z,-1.04
2023-03-28T02:22:37.223Z,-1.03
2023-03-28T02:25:19.638Z,-0.97
2023-03-28T02:28:06.807Z,-0.93
2023-03-28T02:30:40.614Z,-0.91
2023-03-28T02:33:39.059Z,-0.95
2023-03-28T02:36:33.614Z,-0.91
2023-03-28T02:39:48.214Z,-0.96
2023-03-28T02:43:08.606Z,-0.93
2023-03-28T02:46:12.064Z,-0.99
2023-03-28T02:49:47.288Z,-1.04
2023-03-28T02:52:35.036Z,-1.00
2023-03-28T02:55:17.483Z,-1.05
2023-03-28T02:58:13.358Z,-0.98
2023-03-28T03:00:42.930Z,-0.98
2023-03-28T03:03:14.092Z,-1.02
2023-03-28T03:05:45.292Z,-1.11
2023-03-28T03:08:15.188Z,-1.15
2023-03-28T03:10:44.610Z,-1.18
2023-03-28T03:13:14.043Z,-1.26
2023-03-28T03:15:43.747Z,-1.28
2023-03-28T03:18:22.910Z,-1.29
2023-03-28T03:20:54.800Z,-1.23
2023-03-28T03:23:24.272Z,-1.29
2023-03-28T03:25:57.254Z,-1.28
2023-03-28T03:28:36.836Z,-1.39
2023-03-28T03:31:08.623Z,-1.34
2023-03-28T03:34:01.912Z,-1.39
2023-03-28T03:36:36.650Z,-1.38
2023-03-28T03:39:09.232Z,-1.35
2023-03-28T03:41:39.300Z,-1.43
2023-03-28T03:44:09.209Z,-1.41
2023-03-28T03:46:39.343Z,-1.38
2023-03-28T03:49:10.868Z,-1.39
2023-03-28T03:51:41.980Z,-1.41
2023-03-28T03:54:11.654Z,-1.42
2023-03-28T03:56:42.296Z,-1.46
2023-03-28T03:59:13.224Z,-1.45
2023-03-28T04:01:43.945Z,-1.54
2023-03-28T04:04:33.701Z,-1.54
2023-03-28T04:07:10.725Z,-1.51
2023-03-28T04:09:40.547Z,-1.54
2023-03-28T04:12:12.584Z,-1.56
2023-03-28T04:15:10.127Z,-1.61
2023-03-28T04:17:41.350Z,-1.75
2023-03-28T04:20:15.355Z,-1.72
2023-03-28T04:23:06.033Z,-1.82
2023-03-28T04:25:36.876Z,-1.83
2023-03-28T04:28:16.104Z,-1.76
2023-03-28T04:31:12.060Z,-1.82
2023-03-28T04:34:00.319Z,-1.80
2023-03-28T04:36:31.402Z,-1.85
2023-03-28T04:39:05.988Z,-1.96
2023-03-28T04:42:14.254Z,-1.96
2023-03-28T04:45:17.920Z,-1.94
2023-03-28T04:47:49.781Z,-1.96
2023-03-28T04:50:21.613Z,-1.96
2023-03-28T04:52:51.088Z,-1.98
2023-03-28T04:55:21.848Z,-2.00
2023-03-28T04:57:52.630Z,-1.99
2023-03-28T05:00:25.457Z,-1.99
2023-03-28T05:03:14.456Z,-2.01
2023-03-28T05:05:58.039Z,-1.99
2023-03-28T05:08:27.764Z,-1.94
2023-03-28T05:10:58.886Z,-1.96
2023-03-28T05:13:29.307Z,-2.03
2023-03-28T05:16:12.903Z,-2.06
2023-03-28T05:19:01.607Z,-2.04
2023-03-28T05:21:51.033Z,-1.99
2023-03-28T05:24:20.723Z,-2.00
2023-03-28T05:26:51.549Z,-2.00
2023-03-28T05:29:25.747Z,-1.97
2023-03-28T05:31:55.819Z,-1.94
2023-03-28T05:34:30.491Z,-1.93
2023-03-28T05:37:00.412Z,-1.88
2023-03-28T05:39:32.998Z,-1.89
2023-03-28T05:42:08.816Z,-1.81
2023-03-28T05:44:40.741Z,-1.75
2023-03-28T05:47:28.976Z,-1.75
2023-03-28T05:50:00.451Z,-1.79
2023-03-28T05:52:29.933Z,-1.76
2023-03-28T05:54:59.469Z,-1.67
2023-03-28T05:57:30.246Z,-1.72
2023-03-28T05:59:59.822Z,-1.62
2023-03-28T06:02:30.935Z,-1.65
2023-03-28T06:05:00.477Z,-1.63
2023-03-28T06:07:41.408Z,-1.60
2023-03-28T06:10:15.550Z,-1.59
2023-03-28T06:12:56.169Z,-1.41
2023-03-28T06:15:26.308Z,-1.34
2023-03-28T06:17:55.997Z,-1.37
2023-03-28T06:20:26.069Z,-1.27
2023-03-28T06:22:57.466Z,-1.14
2023-03-28T06:25:26.986Z,-1.07
2023-03-28T06:27:58.088Z,-0.94
2023-03-28T06:30:27.689Z,-0.93
2023-03-28T06:32:57.445Z,-0.89
2023-03-28T06:35:27.380Z,-0.78
2023-03-28T06:37:56.889Z,-0.63
2023-03-28T06:40:29.020Z,-0.54
2023-03-28T06:43:00.623Z,-0.46
2023-03-28T06:45:50.429Z,-0.43
2023-03-28T06:48:20.901Z,-0.39
2023-03-28T06:51:16.434Z,-0.36
2023-03-28T06:53:48.047Z,-0.33
2023-03-28T06:56:19.761Z,-0.28
2023-03-28T06:58:50.827Z,-0.19
2023-03-28T07:01:25.739Z,-0.16
2023-03-28T07:04:21.597Z,-0.06
2023-03-28T07:06:51.065Z,0.10
2023-03-28T07:09:20.607Z,0.17
2023-03-28T07:11:56.600Z,0.27
2023-03-28T07:14:28.188Z,0.36
2023-03-28T07:16:57.797Z,0.42
2023-03-28T07:19:28.983Z,0.47
2023-03-28T07:21:58.578Z,0.53
2023-03-28T07:24:28.598Z,0.59
2023-03-28T07:29:39.617Z,0.75
2023-03-28T07:32:09.153Z,0.78
2023-03-28T07:34:38.970Z,0.83
2023-03-28T07:37:11.182Z,0.89
2023-03-28T07:39:56.491Z,0.87
2023-03-28T07:42:28.729Z,0.88
2023-03-28T07:44:59.544Z,0.94
2023-03-28T07:47:31.188Z,1.02
2023-03-28T07:50:00.636Z,1.06
2023-03-28T07:52:30.346Z,1.11
2023-03-28T07:55:00.040Z,1.18
2023-03-28T07:57:30.607Z,1.30
2023-03-28T08:00:18.672Z,1.31
2023-03-28T08:03:05.866Z,1.44
2023-03-28T08:05:37.555Z,1.55
2023-03-28T08:08:09.209Z,1.59
2023-03-28T08:10:38.764Z,1.87
2023-03-28T08:13:08.246Z,1.99
2023-03-28T08:15:39.220Z,2.10
2023-03-28T08:18:09.134Z,2.17
2023-03-28T08:20:40.232Z,2.21
2023-03-28T08:23:15.915Z,2.17
2023-03-28T08:25:45.419Z,2.14
2023-03-28T08:28:17.752Z,2.22
2023-03-28T08:30:48.824Z,2.28
2023-03-28T08:33:18.284Z,2.41
2023-03-28T08:35:48.221Z,2.52
2023-03-28T08:38:21.279Z,2.55
2023-03-28T08:41:03.361Z,2.64
2023-03-28T08:44:16.997Z,2.64
2023-03-28T08:46:54.327Z,2.63
2023-03-28T08:49:24.315Z,2.81
2023-03-28T08:51:59.534Z,2.90
2023-03-28T08:54:38.792Z,3.11
2023-03-28T08:57:17.568Z,3.22
2023-03-28T08:59:59.984Z,3.30
2023-03-28T09:02:33.336Z,3.47
2023-03-28T09:07:47.500Z,3.52
2023-03-28T09:10:28.744Z,3.59
2023-03-28T09:13:26.995Z,3.38
2023-03-28T09:16:31.713Z,3.32
2023-03-28T09:19:47.859Z,3.40
2023-03-28T09:23:19.789Z,3.33
2023-03-28T09:26:14.087Z,3.25
2023-03-28T09:28:53.941Z,3.44
2023-03-28T09:31:31.064Z,3.62
2023-03-28T09:34:03.699Z,3.65
2023-03-28T09:36:49.551Z,3.83
2023-03-28T09:39:32.651Z,3.85
2023-03-28T09:42:12.233Z,3.54
2023-03-28T09:45:05.787Z,3.74
2023-03-28T09:47:54.166Z,3.89
2023-03-28T09:50:27.677Z,3.82
2023-03-28T09:53:01.540Z,4.05
2023-03-28T09:55:32.467Z,4.05
2023-03-28T09:58:07.143Z,4.08
2023-03-28T10:00:57.035Z,3.99
2023-03-28T10:03:54.867Z,3.93
2023-03-28T10:06:40.622Z,3.60
2023-03-28T10:09:20.055Z,3.52
2023-03-28T10:12:10.072Z,3.38
2023-03-28T10:14:47.079Z,3.55
2023-03-28T10:17:42.278Z,3.79
2023-03-28T10:20:21.476Z,4.04
2023-03-28T10:22:57.138Z,4.07
2023-03-28T10:25:37.727Z,3.97
2023-03-28T10:28:14.123Z,4.05
2023-03-28T10:30:44.152Z,3.84
2023-03-28T10:33:33.115Z,3.96
2023-03-28T10:36:32.607Z,4.57
2023-03-28T10:39:24.168Z,4.73
2023-03-28T10:42:15.382Z,4.52
2023-03-28T10:45:01.670Z,4.31
2023-03-28T10:47:35.204Z,4.20
2023-03-28T10:50:22.081Z,4.06
2023-03-28T10:53:10.441Z,4.02
2023-03-28T10:56:01.579Z,4.16
2023-03-28T10:58:59.503Z,4.45
2023-03-28T11:01:48.011Z,4.57
2023-03-28T11:04:39.553Z,4.71
2023-03-28T11:07:18.050Z,4.84
2023-03-28T11:10:17.046Z,4.93
2023-03-28T11:13:17.312Z,5.20
2023-03-28T11:16:00.736Z,5.23
2023-03-28T11:19:01.804Z,5.28
2023-03-28T11:21:48.426Z,5.54
2023-03-28T11:24:32.590Z,5.80
2023-03-28T11:27:25.522Z,5.68
2023-03-28T11:30:21.439Z,5.44
2023-03-28T11:33:16.620Z,5.24
2023-03-28T11:35:51.165Z,5.12
2023-03-28T11:38:26.244Z,4.85
2023-03-28T11:41:04.301Z,4.60
2023-03-28T11:44:02.368Z,4.53
2023-03-28T11:46:36.889Z,4.47
2023-03-28T11:49:20.717Z,4.37
2023-03-28T11:52:02.524Z,4.63
2023-03-28T11:54:39.819Z,5.20
2023-03-28T11:57:20.813Z,5.43
2023-03-28T12:00:02.541Z,5.70
2023-03-28T12:02:48.721Z,5.74
2023-03-28T12:05:30.705Z,5.78
2023-03-28T12:08:09.346Z,6.05
2023-03-28T12:10:43.263Z,6.28
2023-03-28T12:13:45.568Z,6.54
2023-03-28T12:16:23.963Z,6.81
2023-03-28T12:19:00.185Z,7.02
2023-03-28T12:22:01.539Z,6.81
2023-03-28T12:24:52.510Z,6.72
2023-03-28T12:27:43.938Z,7.01
2023-03-28T12:30:26.504Z,7.27
2023-03-28T12:33:14.060Z,7.68
2023-03-28T12:36:00.542Z,7.50
2023-03-28T12:38:39.986Z,7.63
2023-03-28T12:41:29.071Z,7.89
2023-03-28T12:44:04.561Z,8.10
2023-03-28T12:46:48.077Z,8.15
2023-03-28T12:49:33.811Z,8.01
2023-03-28T12:52:13.493Z,8.03
2023-03-28T12:55:01.601Z,7.71
2023-03-28T12:57:48.395Z,8.02
2023-03-28T13:00:48.079Z,8.33
2023-03-28T13:03:51.263Z,8.90
2023-03-28T13:06:40.227Z,9.05
2023-03-28T13:09:51.541Z,9.07
2023-03-28T13:12:41.608Z,9.15
2023-03-28T13:15:33.818Z,9.06
2023-03-28T13:18:32.633Z,9.12
2023-03-28T13:21:07.183Z,9.28
2023-03-28T13:23:47.650Z,9.49
2023-03-28T13:26:17.134Z,9.61
2023-03-28T13:28:51.593Z,9.87
2023-03-28T13:31:24.302Z,9.62
2023-03-28T13:34:01.425Z,9.39
2023-03-28T13:36:33.444Z,9.64
2023-03-28T13:39:24.937Z,9.19
2023-03-28T13:42:01.409Z,9.32
2023-03-28T13:44:43.275Z,8.94
2023-03-28T13:47:26.966Z,8.99
2023-03-28T13:50:06.084Z,9.42
2023-03-28T13:52:35.618Z,9.23
2023-03-28T13:55:20.966Z,9.44
2023-03-28T13:57:51.364Z,9.46
2023-03-28T14:00:26.701Z,9.85
2023-03-28T14:03:04.727Z,9.92
2023-03-28T14:05:35.941Z,10.10
2023-03-28T14:08:25.327Z,9.93
2023-03-28T14:10:56.876Z,9.81
2023-03-28T14:13:30.108Z,10.08
2023-03-28T14:16:00.761Z,10.29
2023-03-28T14:18:36.265Z,10.45
2023-03-28T14:21:07.603Z,10.19
2023-03-28T14:23:40.203Z,9.47
2023-03-28T14:26:19.990Z,9.27
2023-03-28T14:28:52.242Z,9.12
2023-03-28T14:31:38.296Z,8.92
2023-03-28T14:34:23.879Z,8.79
2023-03-28T14:37:00.894Z,8.70
2023-03-28T14:39:33.875Z,8.14
2023-03-28T14:42:07.405Z,7.94
2023-03-28T14:44:42.212Z,8.01
2023-03-28T14:47:18.380Z,7.87
2023-03-28T14:49:48.066Z,8.07
2023-03-28T14:52:30.167Z,8.05
2023-03-28T14:55:01.647Z,8.32
2023-03-28T14:57:31.713Z,8.49
2023-03-28T15:00:01.869Z,8.49
2023-03-28T15:02:36.758Z,8.58
2023-03-28T15:05:11.049Z,8.69
2023-03-28T15:07:42.128Z,8.88
2023-03-28T15:10:22.809Z,9.14
2023-03-28T15:13:05.368Z,9.25
2023-03-28T15:15:38.532Z,9.15
2023-03-28T15:18:12.495Z,9.28
2023-03-28T15:20:45.930Z,9.32
2023-03-28T15:23:22.070Z,9.30
2023-03-28T15:25:52.307Z,9.23
2023-03-28T15:28:22.035Z,9.13
2023-03-28T15:30:51.700Z,8.80
2023-03-28T15:33:26.059Z,8.71
2023-03-28T15:36:08.281Z,8.57
2023-03-28T15:38:41.136Z,8.63
2023-03-28T15:41:20.083Z,8.76
2023-03-28T15:44:13.189Z,8.89
2023-03-28T15:46:42.685Z,8.86
2023-03-28T15:49:13.844Z,9.11
2023-03-28T15:51:52.521Z,9.18
2023-03-28T15:54:31.309Z,9.22
2023-03-28T15:57:03.612Z,9.25
2023-03-28T15:59:39.217Z,9.28
2023-03-28T16:02:37.154Z,9.30
2023-03-28T16:05:28.682Z,9.17
2023-03-28T16:07:58.193Z,8.98
2023-03-28T16:10:27.750Z,8.82
2023-03-28T16:13:23.161Z,8.93
2023-03-28T16:16:25.172Z,9.10
2023-03-28T16:19:06.291Z,9.06
2023-03-28T16:21:37.114Z,8.89
2023-03-28T16:24:07.159Z,8.57
2023-03-28T16:26:36.705Z,8.37
2023-03-28T16:29:06.306Z,8.20
2023-03-28T16:31:36.065Z,8.09
2023-03-28T16:34:08.527Z,7.90
2023-03-28T16:36:40.814Z,7.73
2023-03-28T16:39:12.049Z,7.74
2023-03-28T16:41:41.495Z,7.80
2023-03-28T16:44:11.878Z,7.80
2023-03-28T16:46:41.582Z,7.72
2023-03-28T16:49:11.324Z,7.62
2023-03-28T16:51:42.153Z,7.45
2023-03-28T16:54:11.721Z,7.30
2023-03-28T16:56:41.409Z,7.13
2023-03-28T16:59:11.892Z,6.97
2023-03-28T17:01:42.966Z,6.78
2023-03-28T17:04:12.516Z,6.67
2023-03-28T17:06:43.311Z,6.60
2023-03-28T17:09:13.221Z,6.53
2023-03-28T17:11:42.898Z,6.43
2023-03-28T17:14:12.289Z,6.30
2023-03-28T17:16:41.826Z,6.19
2023-03-28T17:19:11.224Z,6.09
2023-03-28T17:21:42.003Z,5.99
2023-03-28T17:24:11.637Z,5.82
2023-03-28T17:26:41.245Z,5.63
2023-03-28T17:29:11.935Z,5.54
2023-03-28T17:31:41.815Z,5.45
2023-03-28T17:34:12.708Z,5.38
2023-03-28T17:36:44.238Z,5.31
2023-03-28T17:39:13.712Z,5.22
2023-03-28T17:41:43.147Z,5.08
2023-03-28T17:44:12.639Z,4.94
2023-03-28T17:46:44.560Z,4.79
2023-03-28T17:49:15.222Z,4.61
2023-03-28T17:51:47.983Z,4.51
2023-03-28T17:54:17.916Z,4.35
2023-03-28T17:56:47.434Z,4.28
2023-03-28T17:59:17.233Z,4.25
2023-03-28T18:01:46.753Z,4.19
2023-03-28T18:04:17.522Z,4.12
2023-03-28T18:07:15.924Z,4.00
2023-03-28T18:09:46.358Z,3.91
2023-03-28T18:12:17.468Z,3.83
2023-03-28T18:14:48.355Z,3.73
2023-03-28T18:17:19.754Z,3.62
2023-03-28T18:19:49.204Z,3.53
2023-03-28T18:22:20.137Z,3.42
2023-03-28T18:24:49.545Z,3.31
2023-03-28T18:27:18.989Z,3.21
2023-03-28T18:29:49.481Z,3.10
2023-03-28T18:32:18.868Z,3.04
2023-03-28T18:34:48.293Z,2.98
2023-03-28T18:37:19.087Z,2.87
2023-03-28T18:39:48.800Z,2.82
2023-03-28T18:42:18.282Z,2.72
2023-03-28T18:44:48.742Z,2.61
2023-03-28T18:47:18.182Z,2.48
2023-03-28T18:49:47.573Z,2.34
2023-03-28T18:52:17.198Z,2.22
2023-03-28T18:54:49.201Z,2.10
2023-03-28T18:57:18.743Z,1.98
2023-03-28T18:59:48.346Z,1.90
2023-03-28T19:02:17.799Z,1.80
2023-03-28T19:04:47.626Z,1.71
2023-03-28T19:07:18.880Z,1.64
2023-03-28T19:09:50.151Z,1.59
2023-03-28T19:12:19.541Z,1.50
2023-03-28T19:14:50.153Z,1.45
2023-03-28T19:17:19.728Z,1.42
2023-03-28T19:19:49.157Z,1.36
2023-03-28T19:22:18.525Z,1.29
2023-03-28T19:24:49.303Z,1.22
2023-03-28T19:27:18.745Z,1.16
2023-03-28T19:29:48.271Z,1.13
2023-03-28T19:32:18.008Z,1.08
2023-03-28T19:34:47.495Z,1.04
2023-03-28T19:37:16.950Z,0.98
2023-03-28T19:39:46.351Z,0.93
2023-03-28T19:42:18.096Z,0.87
2023-03-28T19:44:47.531Z,0.85
2023-03-28T19:47:16.954Z,0.80
2023-03-28T19:49:46.350Z,0.74
2023-03-28T19:52:15.848Z,0.70
2023-03-28T19:54:45.275Z,0.65
2023-03-28T19:57:16.095Z,0.61
2023-03-28T19:59:45.724Z,0.58
2023-03-28T20:02:15.466Z,0.54
2023-03-28T20:04:44.907Z,0.50
2023-03-28T20:07:14.403Z,0.45
2023-03-28T20:09:48.641Z,0.40
2023-03-28T20:12:20.770Z,0.39
2023-03-28T20:14:50.144Z,0.40
2023-03-28T20:17:19.763Z,0.38
2023-03-28T20:19:51.477Z,0.38
2023-03-28T20:22:24.321Z,0.40
2023-03-28T20:24:53.784Z,0.42
2023-03-28T20:27:25.048Z,0.42
2023-03-28T20:29:54.438Z,0.41
2023-03-28T20:32:23.858Z,0.38
2023-03-28T20:34:53.302Z,0.37
2023-03-28T20:37:23.458Z,0.37
2023-03-28T20:39:53.395Z,0.39
2023-03-28T20:42:24.319Z,0.40
2023-03-28T20:44:54.164Z,0.41
2023-03-28T20:47:25.177Z,0.41
2023-03-28T20:49:56.854Z,0.38
2023-03-28T20:52:26.314Z,0.38
2023-03-28T20:54:55.696Z,0.40
2023-03-28T20:57:30.289Z,0.42
2023-03-28T21:00:01.251Z,0.43
2023-03-28T21:02:33.617Z,0.49
2023-03-28T21:05:04.517Z,0.57
2023-03-28T21:07:33.964Z,0.61
2023-03-28T21:10:03.910Z,0.61
2023-03-28T21:12:34.730Z,0.67
2023-03-28T21:15:04.641Z,0.74
2023-03-28T21:17:34.464Z,0.80
2023-03-28T21:20:07.169Z,0.86
2023-03-28T21:22:37.964Z,0.86
2023-03-28T21:25:10.455Z,0.88
2023-03-28T21:27:41.465Z,0.92
2023-03-28T21:30:13.800Z,0.94
2023-03-28T21:32:43.913Z,0.98
2023-03-28T21:35:15.238Z,1.02
2023-03-28T21:37:44.645Z,1.05
2023-03-28T21:40:14.144Z,1.11
2023-03-28T21:42:44.952Z,1.16
2023-03-28T21:45:14.423Z,1.21
2023-03-28T21:47:44.921Z,1.24
2023-03-28T21:50:15.086Z,1.29
2023-03-28T21:52:44.672Z,1.32
2023-03-28T21:55:14.101Z,1.36
2023-03-28T21:57:44.924Z,1.38
2023-03-28T22:00:17.221Z,1.41
2023-03-28T22:02:46.677Z,1.46
2023-03-28T22:05:28.609Z,1.48
2023-03-28T22:07:59.905Z,1.51
2023-03-28T22:10:29.351Z,1.53
2023-03-28T22:13:00.219Z,1.53
2023-03-28T22:15:32.377Z,1.53
2023-03-28T22:18:04.402Z,1.53
2023-03-28T22:20:33.958Z,1.54
2023-03-28T22:23:04.603Z,1.55
2023-03-28T22:25:38.221Z,1.61
2023-03-28T22:28:11.859Z,1.63
2023-03-28T22:30:42.351Z,1.65
2023-03-28T22:33:13.457Z,1.66
2023-03-28T22:35:43.066Z,1.75
2023-03-28T22:38:12.454Z,1.72
2023-03-28T22:40:42.006Z,1.73
2023-03-28T22:43:12.985Z,1.74
2023-03-28T22:45:42.865Z,1.75
2023-03-28T22:48:15.138Z,1.77
2023-03-28T22:50:46.199Z,1.80
2023-03-28T22:53:16.312Z,1.79
2023-03-28T22:55:46.310Z,1.80
2023-03-28T22:58:17.932Z,1.84
2023-03-28T23:00:47.559Z,1.84
2023-03-28T23:03:18.007Z,1.83
2023-03-28T23:05:47.640Z,1.82
2023-03-28T23:08:17.108Z,1.93
2023-03-28T23:10:47.433Z,1.92
2023-03-28T23:13:18.242Z,1.88
2023-03-28T23:15:47.908Z,1.87
2023-03-28T23:18:17.420Z,1.84
2023-03-28T23:20:51.209Z,1.82
2023-03-28T23:23:21.043Z,1.93
2023-03-28T23:25:50.427Z,1.89
2023-03-28T23:28:21.160Z,1.85
2023-03-28T23:30:50.655Z,1.90
2023-03-28T23:33:20.829Z,1.88
2023-03-28T23:35:50.433Z,1.92
2023-03-28T23:38:20.005Z,1.99
2023-03-28T23:40:49.555Z,2.21
2023-03-28T23:43:20.358Z,2.26
2023-03-28T23:45:49.802Z,2.20
2023-03-28T23:48:19.309Z,2.25
2023-03-28T23:50:48.672Z,2.29
2023-03-28T23:53:18.091Z,2.39
2023-03-28T23:55:47.501Z,2.34
2023-03-28T23:58:16.940Z,2.43
